<?xml version="1.0" encoding="UTF-8"?>
<gpx xmlns="http://www.topografix.com/GPX/1/1" xmlns:xsi="http://www.w3.org/2001/XMLSchema-instance" version="1.1" xsi:schemaLocation="http://www.topografix.com/GPX/1/1 http://www.topografix.com/GPX/1/1/gpx.xsd">
  <metadata>
    <name>YMCA Race Weekend 2023</name>
  </metadata>
  <trk>
    <name>YMCA Race Weekend 2023</name>
    <trkseg>
      <trkpt lat="43.059155" lon="-75.961022">
        <ele>127.23875</ele>
        <time>2024-06-08T08:16:00.000Z</time>
      </trkpt>
      <trkpt lat="43.059194" lon="-75.961185">
        <ele>127.238755</ele>
        <time>2024-06-08T08:16:01.000Z</time>
      </trkpt>
      <trkpt lat="43.059268" lon="-75.961838">
        <ele>127.238759</ele>
        <time>2024-06-08T08:16:06.000Z</time>
      </trkpt>
      <trkpt lat="43.059203" lon="-75.962641">
        <ele>127.319195</ele>
        <time>2024-06-08T08:16:13.000Z</time>
      </trkpt>
      <trkpt lat="43.059059" lon="-75.963574">
        <ele>127.502116</ele>
        <time>2024-06-08T08:16:21.000Z</time>
      </trkpt>
      <trkpt lat="43.058934" lon="-75.964089">
        <ele>127.61002</ele>
        <time>2024-06-08T08:16:25.000Z</time>
      </trkpt>
      <trkpt lat="43.058841" lon="-75.964334">
        <ele>127.66331</ele>
        <time>2024-06-08T08:16:27.000Z</time>
      </trkpt>
      <trkpt lat="43.058645" lon="-75.964779">
        <ele>127.981831</ele>
        <time>2024-06-08T08:16:31.000Z</time>
      </trkpt>
      <trkpt lat="43.058475" lon="-75.965032">
        <ele>128.349939</ele>
        <time>2024-06-08T08:16:34.000Z</time>
      </trkpt>
      <trkpt lat="43.058235" lon="-75.965327">
        <ele>128.828842</ele>
        <time>2024-06-08T08:16:38.000Z</time>
      </trkpt>
      <trkpt lat="43.057698" lon="-75.965991">
        <ele>129.901988</ele>
        <time>2024-06-08T08:16:46.000Z</time>
      </trkpt>
      <trkpt lat="43.05753" lon="-75.966273">
        <ele>130.305735</ele>
        <time>2024-06-08T08:16:49.000Z</time>
      </trkpt>
      <trkpt lat="43.057355" lon="-75.966706">
        <ele>131.35297</ele>
        <time>2024-06-08T08:16:53.000Z</time>
      </trkpt>
      <trkpt lat="43.057264" lon="-75.96703">
        <ele>132.160339</ele>
        <time>2024-06-08T08:16:56.000Z</time>
      </trkpt>
      <trkpt lat="43.057227" lon="-75.967484">
        <ele>133.276172</ele>
        <time>2024-06-08T08:17:00.000Z</time>
      </trkpt>
      <trkpt lat="43.057234" lon="-75.967555">
        <ele>133.436126</ele>
        <time>2024-06-08T08:17:01.000Z</time>
      </trkpt>
      <trkpt lat="43.057267" lon="-75.968185">
        <ele>134.91399</ele>
        <time>2024-06-08T08:17:06.000Z</time>
      </trkpt>
      <trkpt lat="43.057372" lon="-75.96858">
        <ele>135.913575</ele>
        <time>2024-06-08T08:17:09.000Z</time>
      </trkpt>
      <trkpt lat="43.05757" lon="-75.969209">
        <ele>137.361888</ele>
        <time>2024-06-08T08:17:15.000Z</time>
      </trkpt>
      <trkpt lat="43.057746" lon="-75.969651">
        <ele>138.360047</ele>
        <time>2024-06-08T08:17:19.000Z</time>
      </trkpt>
      <trkpt lat="43.057802" lon="-75.969731">
        <ele>138.562758</ele>
        <time>2024-06-08T08:17:20.000Z</time>
      </trkpt>
      <trkpt lat="43.057942" lon="-75.97003">
        <ele>139.303023</ele>
        <time>2024-06-08T08:17:23.000Z</time>
      </trkpt>
      <trkpt lat="43.057974" lon="-75.970089">
        <ele>139.443598</ele>
        <time>2024-06-08T08:17:24.000Z</time>
      </trkpt>
      <trkpt lat="43.058135" lon="-75.970332">
        <ele>140.094363</ele>
        <time>2024-06-08T08:17:27.000Z</time>
      </trkpt>
      <trkpt lat="43.0583" lon="-75.970573">
        <ele>140.738168</ele>
        <time>2024-06-08T08:17:30.000Z</time>
      </trkpt>
      <trkpt lat="43.058452" lon="-75.970733">
        <ele>141.193195</ele>
        <time>2024-06-08T08:17:32.000Z</time>
      </trkpt>
      <trkpt lat="43.05868" lon="-75.970926">
        <ele>141.343793</ele>
        <time>2024-06-08T08:17:35.000Z</time>
      </trkpt>
      <trkpt lat="43.058913" lon="-75.97109">
        <ele>141.494657</ele>
        <time>2024-06-08T08:17:38.000Z</time>
      </trkpt>
      <trkpt lat="43.058995" lon="-75.971114">
        <ele>141.55086</ele>
        <time>2024-06-08T08:17:39.000Z</time>
      </trkpt>
      <trkpt lat="43.059291" lon="-75.971218">
        <ele>141.722307</ele>
        <time>2024-06-08T08:17:42.000Z</time>
      </trkpt>
      <trkpt lat="43.059931" lon="-75.971289">
        <ele>142.098528</ele>
        <time>2024-06-08T08:17:49.000Z</time>
      </trkpt>
      <trkpt lat="43.05991" lon="-75.971433">
        <ele>142.15836</ele>
        <time>2024-06-08T08:17:50.000Z</time>
      </trkpt>
      <trkpt lat="43.05991" lon="-75.971541">
        <ele>142.207466</ele>
        <time>2024-06-08T08:17:51.000Z</time>
      </trkpt>
      <trkpt lat="43.05989" lon="-75.972051">
        <ele>142.389827</ele>
        <time>2024-06-08T08:17:55.000Z</time>
      </trkpt>
      <trkpt lat="43.059875" lon="-75.972703">
        <ele>142.627607</ele>
        <time>2024-06-08T08:18:00.000Z</time>
      </trkpt>
      <trkpt lat="43.059812" lon="-75.973729">
        <ele>142.998333</ele>
        <time>2024-06-08T08:18:08.000Z</time>
      </trkpt>
      <trkpt lat="43.059772" lon="-75.974432">
        <ele>143.488972</ele>
        <time>2024-06-08T08:18:14.000Z</time>
      </trkpt>
      <trkpt lat="43.059589" lon="-75.976008">
        <ele>144.970449</ele>
        <time>2024-06-08T08:18:27.000Z</time>
      </trkpt>
      <trkpt lat="43.059261" lon="-75.978317">
        <ele>147.137849</ele>
        <time>2024-06-08T08:18:46.000Z</time>
      </trkpt>
      <trkpt lat="43.058752" lon="-75.980791">
        <ele>148.602918</ele>
        <time>2024-06-08T08:19:07.000Z</time>
      </trkpt>
      <trkpt lat="43.05848" lon="-75.981947">
        <ele>148.871014</ele>
        <time>2024-06-08T08:19:17.000Z</time>
      </trkpt>
      <trkpt lat="43.057809" lon="-75.984062">
        <ele>149.013539</ele>
        <time>2024-06-08T08:19:36.000Z</time>
      </trkpt>
      <trkpt lat="43.057622" lon="-75.984684">
        <ele>149.055232</ele>
        <time>2024-06-08T08:19:41.000Z</time>
      </trkpt>
      <trkpt lat="43.057245" lon="-75.986276">
        <ele>149.549544</ele>
        <time>2024-06-08T08:19:55.000Z</time>
      </trkpt>
      <trkpt lat="43.057182" lon="-75.98657">
        <ele>149.820964</ele>
        <time>2024-06-08T08:19:57.000Z</time>
      </trkpt>
      <trkpt lat="43.056684" lon="-75.988917">
        <ele>152.266329</ele>
        <time>2024-06-08T08:20:17.000Z</time>
      </trkpt>
      <trkpt lat="43.056098" lon="-75.990932">
        <ele>154.520035</ele>
        <time>2024-06-08T08:20:35.000Z</time>
      </trkpt>
      <trkpt lat="43.055578" lon="-75.992869">
        <ele>154.997161</ele>
        <time>2024-06-08T08:20:52.000Z</time>
      </trkpt>
      <trkpt lat="43.054896" lon="-75.995852">
        <ele>152.322865</ele>
        <time>2024-06-08T08:21:17.000Z</time>
      </trkpt>
      <trkpt lat="43.054767" lon="-75.996206">
        <ele>152.102202</ele>
        <time>2024-06-08T08:21:20.000Z</time>
      </trkpt>
      <trkpt lat="43.054309" lon="-75.997255">
        <ele>151.397192</ele>
        <time>2024-06-08T08:21:30.000Z</time>
      </trkpt>
      <trkpt lat="43.054122" lon="-75.997721">
        <ele>150.679543</ele>
        <time>2024-06-08T08:21:34.000Z</time>
      </trkpt>
      <trkpt lat="43.053748" lon="-75.998904">
        <ele>148.750649</ele>
        <time>2024-06-08T08:21:44.000Z</time>
      </trkpt>
      <trkpt lat="43.053374" lon="-75.999824">
        <ele>145.958628</ele>
        <time>2024-06-08T08:21:53.000Z</time>
      </trkpt>
      <trkpt lat="43.053153" lon="-76.000296">
        <ele>142.92948</ele>
        <time>2024-06-08T08:21:58.000Z</time>
      </trkpt>
      <trkpt lat="43.053268" lon="-76.000409">
        <ele>141.922413</ele>
        <time>2024-06-08T08:22:00.000Z</time>
      </trkpt>
      <trkpt lat="43.053334" lon="-76.000493">
        <ele>141.20116</ele>
        <time>2024-06-08T08:22:01.000Z</time>
      </trkpt>
      <trkpt lat="43.053405" lon="-76.000579">
        <ele>140.583669</ele>
        <time>2024-06-08T08:22:02.000Z</time>
      </trkpt>
      <trkpt lat="43.053425" lon="-76.000605">
        <ele>140.387608</ele>
        <time>2024-06-08T08:22:02.000Z</time>
      </trkpt>
      <trkpt lat="43.053549" lon="-76.000811">
        <ele>138.893998</ele>
        <time>2024-06-08T08:22:04.000Z</time>
      </trkpt>
      <trkpt lat="43.053714" lon="-76.001112">
        <ele>136.895409</ele>
        <time>2024-06-08T08:22:07.000Z</time>
      </trkpt>
      <trkpt lat="43.054177" lon="-76.000774">
        <ele>133.472188</ele>
        <time>2024-06-08T08:22:13.000Z</time>
      </trkpt>
      <trkpt lat="43.054589" lon="-76.000504">
        <ele>131.35727</ele>
        <time>2024-06-08T08:22:18.000Z</time>
      </trkpt>
      <trkpt lat="43.054979" lon="-76.000256">
        <ele>129.464319</ele>
        <time>2024-06-08T08:22:23.000Z</time>
      </trkpt>
      <trkpt lat="43.055418" lon="-75.99997">
        <ele>127.179701</ele>
        <time>2024-06-08T08:22:28.000Z</time>
      </trkpt>
      <trkpt lat="43.0561" lon="-75.999578">
        <ele>125.875216</ele>
        <time>2024-06-08T08:22:36.000Z</time>
      </trkpt>
      <trkpt lat="43.056618" lon="-75.999404">
        <ele>125.642002</ele>
        <time>2024-06-08T08:22:42.000Z</time>
      </trkpt>
      <trkpt lat="43.056955" lon="-75.999374">
        <ele>125.493133</ele>
        <time>2024-06-08T08:22:46.000Z</time>
      </trkpt>
      <trkpt lat="43.062457" lon="-75.999727">
        <ele>124.280173</ele>
        <time>2024-06-08T08:23:47.000Z</time>
      </trkpt>
      <trkpt lat="43.063814" lon="-75.999813">
        <ele>124.430581</ele>
        <time>2024-06-08T08:24:02.000Z</time>
      </trkpt>
      <trkpt lat="43.063932" lon="-75.999836">
        <ele>124.45237</ele>
        <time>2024-06-08T08:24:03.000Z</time>
      </trkpt>
      <trkpt lat="43.065832" lon="-75.999953">
        <ele>124.518636</ele>
        <time>2024-06-08T08:24:24.000Z</time>
      </trkpt>
      <trkpt lat="43.066077" lon="-75.999845">
        <ele>124.509364</ele>
        <time>2024-06-08T08:24:27.000Z</time>
      </trkpt>
      <trkpt lat="43.066485" lon="-75.999593">
        <ele>124.419794</ele>
        <time>2024-06-08T08:24:32.000Z</time>
      </trkpt>
      <trkpt lat="43.06921" lon="-75.99778">
        <ele>123.035066</ele>
        <time>2024-06-08T08:25:06.000Z</time>
      </trkpt>
      <trkpt lat="43.070309" lon="-75.996983">
        <ele>122.589261</ele>
        <time>2024-06-08T08:25:20.000Z</time>
      </trkpt>
      <trkpt lat="43.071095" lon="-75.996475">
        <ele>122.322609</ele>
        <time>2024-06-08T08:25:30.000Z</time>
      </trkpt>
      <trkpt lat="43.071334" lon="-75.996265">
        <ele>122.290307</ele>
        <time>2024-06-08T08:25:33.000Z</time>
      </trkpt>
      <trkpt lat="43.07181" lon="-75.995708">
        <ele>122.255096</ele>
        <time>2024-06-08T08:25:40.000Z</time>
      </trkpt>
      <trkpt lat="43.074583" lon="-75.991779">
        <ele>122.066685</ele>
        <time>2024-06-08T08:26:24.000Z</time>
      </trkpt>
      <trkpt lat="43.074805" lon="-75.991552">
        <ele>122.059579</ele>
        <time>2024-06-08T08:26:27.000Z</time>
      </trkpt>
      <trkpt lat="43.075117" lon="-75.991311">
        <ele>122.044958</ele>
        <time>2024-06-08T08:26:31.000Z</time>
      </trkpt>
      <trkpt lat="43.075243" lon="-75.991118">
        <ele>122.02144</ele>
        <time>2024-06-08T08:26:33.000Z</time>
      </trkpt>
      <trkpt lat="43.075323" lon="-75.990908">
        <ele>122.001336</ele>
        <time>2024-06-08T08:26:35.000Z</time>
      </trkpt>
      <trkpt lat="43.075888" lon="-75.98626">
        <ele>121.591539</ele>
        <time>2024-06-08T08:27:13.000Z</time>
      </trkpt>
      <trkpt lat="43.076565" lon="-75.980573">
        <ele>121.06872</ele>
        <time>2024-06-08T08:28:00.000Z</time>
      </trkpt>
      <trkpt lat="43.077405" lon="-75.973679">
        <ele>120.979813</ele>
        <time>2024-06-08T08:28:57.000Z</time>
      </trkpt>
      <trkpt lat="43.077977" lon="-75.968908">
        <ele>121.927937</ele>
        <time>2024-06-08T08:29:36.000Z</time>
      </trkpt>
      <trkpt lat="43.078091" lon="-75.967992">
        <ele>121.88068</ele>
        <time>2024-06-08T08:29:44.000Z</time>
      </trkpt>
      <trkpt lat="43.078259" lon="-75.966548">
        <ele>121.896269</ele>
        <time>2024-06-08T08:29:56.000Z</time>
      </trkpt>
      <trkpt lat="43.078376" lon="-75.965716">
        <ele>121.970388</ele>
        <time>2024-06-08T08:30:03.000Z</time>
      </trkpt>
      <trkpt lat="43.079115" lon="-75.959503">
        <ele>124.53575</ele>
        <time>2024-06-08T08:30:54.000Z</time>
      </trkpt>
      <trkpt lat="43.0792" lon="-75.958782">
        <ele>124.887207</ele>
        <time>2024-06-08T08:31:00.000Z</time>
      </trkpt>
      <trkpt lat="43.079733" lon="-75.954464">
        <ele>126.596309</ele>
        <time>2024-06-08T08:31:36.000Z</time>
      </trkpt>
      <trkpt lat="43.079935" lon="-75.952608">
        <ele>127.058164</ele>
        <time>2024-06-08T08:31:51.000Z</time>
      </trkpt>
      <trkpt lat="43.078893" lon="-75.952503">
        <ele>127.7267</ele>
        <time>2024-06-08T08:32:03.000Z</time>
      </trkpt>
      <trkpt lat="43.076651" lon="-75.952224">
        <ele>129.515847</ele>
        <time>2024-06-08T08:32:28.000Z</time>
      </trkpt>
      <trkpt lat="43.075985" lon="-75.952146">
        <ele>129.913234</ele>
        <time>2024-06-08T08:32:35.000Z</time>
      </trkpt>
      <trkpt lat="43.075091" lon="-75.951922">
        <ele>130.227569</ele>
        <time>2024-06-08T08:32:45.000Z</time>
      </trkpt>
      <trkpt lat="43.071147" lon="-75.950646">
        <ele>130.080611</ele>
        <time>2024-06-08T08:33:30.000Z</time>
      </trkpt>
      <trkpt lat="43.070218" lon="-75.950122">
        <ele>130.469173</ele>
        <time>2024-06-08T08:33:41.000Z</time>
      </trkpt>
      <trkpt lat="43.070012" lon="-75.949995">
        <ele>130.559994</ele>
        <time>2024-06-08T08:33:44.000Z</time>
      </trkpt>
      <trkpt lat="43.069949" lon="-75.949932">
        <ele>130.600428</ele>
        <time>2024-06-08T08:33:45.000Z</time>
      </trkpt>
      <trkpt lat="43.069866" lon="-75.949828">
        <ele>130.639481</ele>
        <time>2024-06-08T08:33:46.000Z</time>
      </trkpt>
      <trkpt lat="43.06977" lon="-75.949685">
        <ele>130.701981</ele>
        <time>2024-06-08T08:33:48.000Z</time>
      </trkpt>
      <trkpt lat="43.069647" lon="-75.949439">
        <ele>130.791683</ele>
        <time>2024-06-08T08:33:50.000Z</time>
      </trkpt>
      <trkpt lat="43.069516" lon="-75.949106">
        <ele>130.993621</ele>
        <time>2024-06-08T08:33:53.000Z</time>
      </trkpt>
      <trkpt lat="43.069252" lon="-75.948302">
        <ele>131.543882</ele>
        <time>2024-06-08T08:34:00.000Z</time>
      </trkpt>
      <trkpt lat="43.069139" lon="-75.948031">
        <ele>131.730776</ele>
        <time>2024-06-08T08:34:03.000Z</time>
      </trkpt>
      <trkpt lat="43.068874" lon="-75.947672">
        <ele>132.043066</ele>
        <time>2024-06-08T08:34:07.000Z</time>
      </trkpt>
      <trkpt lat="43.068727" lon="-75.947534">
        <ele>132.200814</ele>
        <time>2024-06-08T08:34:09.000Z</time>
      </trkpt>
      <trkpt lat="43.068436" lon="-75.947367">
        <ele>132.397899</ele>
        <time>2024-06-08T08:34:13.000Z</time>
      </trkpt>
      <trkpt lat="43.068201" lon="-75.9473">
        <ele>132.484407</ele>
        <time>2024-06-08T08:34:16.000Z</time>
      </trkpt>
      <trkpt lat="43.065175" lon="-75.9471">
        <ele>133.8211</ele>
        <time>2024-06-08T08:34:50.000Z</time>
      </trkpt>
      <trkpt lat="43.064857" lon="-75.947115">
        <ele>134.203459</ele>
        <time>2024-06-08T08:34:54.000Z</time>
      </trkpt>
      <trkpt lat="43.062864" lon="-75.947394">
        <ele>138.730871</ele>
        <time>2024-06-08T08:35:16.000Z</time>
      </trkpt>
      <trkpt lat="43.062697" lon="-75.947417">
        <ele>139.191916</ele>
        <time>2024-06-08T08:35:18.000Z</time>
      </trkpt>
      <trkpt lat="43.061728" lon="-75.947551">
        <ele>141.748863</ele>
        <time>2024-06-08T08:35:29.000Z</time>
      </trkpt>
      <trkpt lat="43.061207" lon="-75.94763">
        <ele>142.509577</ele>
        <time>2024-06-08T08:35:35.000Z</time>
      </trkpt>
      <trkpt lat="43.060802" lon="-75.947678">
        <ele>142.305883</ele>
        <time>2024-06-08T08:35:40.000Z</time>
      </trkpt>
      <trkpt lat="43.06053" lon="-75.955429">
        <ele>137.736019</ele>
        <time>2024-06-08T08:36:43.000Z</time>
      </trkpt>
      <trkpt lat="43.060531" lon="-75.955726">
        <ele>137.454276</ele>
        <time>2024-06-08T08:36:45.000Z</time>
      </trkpt>
      <trkpt lat="43.06045" lon="-75.956247">
        <ele>136.92595</ele>
        <time>2024-06-08T08:36:49.000Z</time>
      </trkpt>
      <trkpt lat="43.060379" lon="-75.956655">
        <ele>136.517481</ele>
        <time>2024-06-08T08:36:52.000Z</time>
      </trkpt>
      <trkpt lat="43.060316" lon="-75.956915">
        <ele>136.466389</ele>
        <time>2024-06-08T08:36:54.000Z</time>
      </trkpt>
      <trkpt lat="43.060012" lon="-75.957814">
        <ele>136.334267</ele>
        <time>2024-06-08T08:37:02.000Z</time>
      </trkpt>
      <trkpt lat="43.059822" lon="-75.958445">
        <ele>136.241046</ele>
        <time>2024-06-08T08:37:08.000Z</time>
      </trkpt>
      <trkpt lat="43.059538" lon="-75.958319">
        <ele>136.183767</ele>
        <time>2024-06-08T08:37:11.000Z</time>
      </trkpt>
      <trkpt lat="43.0593" lon="-75.958312">
        <ele>136.504398</ele>
        <time>2024-06-08T08:37:14.000Z</time>
      </trkpt>
      <trkpt lat="43.057813" lon="-75.958621">
        <ele>139.922947</ele>
        <time>2024-06-08T08:37:31.000Z</time>
      </trkpt>
      <trkpt lat="43.056188" lon="-75.958907">
        <ele>146.495619</ele>
        <time>2024-06-08T08:37:49.000Z</time>
      </trkpt>
      <trkpt lat="43.055043" lon="-75.959127">
        <ele>153.433496</ele>
        <time>2024-06-08T08:38:02.000Z</time>
      </trkpt>
      <trkpt lat="43.05447" lon="-75.959153">
        <ele>157.150604</ele>
        <time>2024-06-08T08:38:08.000Z</time>
      </trkpt>
      <trkpt lat="43.053567" lon="-75.959124">
        <ele>162.061299</ele>
        <time>2024-06-08T08:38:18.000Z</time>
      </trkpt>
      <trkpt lat="43.051203" lon="-75.95901">
        <ele>170.261178</ele>
        <time>2024-06-08T08:38:44.000Z</time>
      </trkpt>
      <trkpt lat="43.048376" lon="-75.958804">
        <ele>170.395942</ele>
        <time>2024-06-08T08:39:15.000Z</time>
      </trkpt>
      <trkpt lat="43.047602" lon="-75.958767">
        <ele>168.399291</ele>
        <time>2024-06-08T08:39:24.000Z</time>
      </trkpt>
      <trkpt lat="43.046593" lon="-75.958779">
        <ele>165.781531</ele>
        <time>2024-06-08T08:39:35.000Z</time>
      </trkpt>
      <trkpt lat="43.046369" lon="-75.958809">
        <ele>165.129037</ele>
        <time>2024-06-08T08:39:38.000Z</time>
      </trkpt>
      <trkpt lat="43.045346" lon="-75.959158">
        <ele>162.208921</ele>
        <time>2024-06-08T08:39:50.000Z</time>
      </trkpt>
      <trkpt lat="43.044408" lon="-75.960563">
        <ele>160.910584</ele>
        <time>2024-06-08T08:40:05.000Z</time>
      </trkpt>
      <trkpt lat="43.042595" lon="-75.962989">
        <ele>161.149023</ele>
        <time>2024-06-08T08:40:33.000Z</time>
      </trkpt>
      <trkpt lat="43.042309" lon="-75.963262">
        <ele>161.316685</ele>
        <time>2024-06-08T08:40:37.000Z</time>
      </trkpt>
      <trkpt lat="43.04198" lon="-75.963457">
        <ele>161.484718</ele>
        <time>2024-06-08T08:40:41.000Z</time>
      </trkpt>
      <trkpt lat="43.040972" lon="-75.963952">
        <ele>162.118334</ele>
        <time>2024-06-08T08:40:53.000Z</time>
      </trkpt>
      <trkpt lat="43.040343" lon="-75.96438">
        <ele>163.249784</ele>
        <time>2024-06-08T08:41:01.000Z</time>
      </trkpt>
      <trkpt lat="43.04014" lon="-75.964471">
        <ele>163.580496</ele>
        <time>2024-06-08T08:41:03.000Z</time>
      </trkpt>
      <trkpt lat="43.039887" lon="-75.964471">
        <ele>164.008384</ele>
        <time>2024-06-08T08:41:06.000Z</time>
      </trkpt>
      <trkpt lat="43.039644" lon="-75.964902">
        <ele>164.620141</ele>
        <time>2024-06-08T08:41:10.000Z</time>
      </trkpt>
      <trkpt lat="43.039344" lon="-75.965623">
        <ele>166.837208</ele>
        <time>2024-06-08T08:41:17.000Z</time>
      </trkpt>
      <trkpt lat="43.039141" lon="-75.966161">
        <ele>168.659616</ele>
        <time>2024-06-08T08:41:22.000Z</time>
      </trkpt>
      <trkpt lat="43.039896" lon="-75.966646">
        <ele>172.100945</ele>
        <time>2024-06-08T08:41:31.000Z</time>
      </trkpt>
      <trkpt lat="43.040055" lon="-75.966769">
        <ele>173.120597</ele>
        <time>2024-06-08T08:41:33.000Z</time>
      </trkpt>
      <trkpt lat="43.040227" lon="-75.966926">
        <ele>174.329498</ele>
        <time>2024-06-08T08:41:35.000Z</time>
      </trkpt>
      <trkpt lat="43.040367" lon="-75.967131">
        <ele>175.584961</ele>
        <time>2024-06-08T08:41:37.000Z</time>
      </trkpt>
      <trkpt lat="43.040489" lon="-75.967367">
        <ele>176.882633</ele>
        <time>2024-06-08T08:41:39.000Z</time>
      </trkpt>
      <trkpt lat="43.040542" lon="-75.967569">
        <ele>177.782812</ele>
        <time>2024-06-08T08:41:41.000Z</time>
      </trkpt>
      <trkpt lat="43.040606" lon="-75.96785">
        <ele>179.067284</ele>
        <time>2024-06-08T08:41:43.000Z</time>
      </trkpt>
      <trkpt lat="43.04064" lon="-75.968142">
        <ele>180.411454</ele>
        <time>2024-06-08T08:41:45.000Z</time>
      </trkpt>
      <trkpt lat="43.040633" lon="-75.968472">
        <ele>181.828872</ele>
        <time>2024-06-08T08:41:48.000Z</time>
      </trkpt>
      <trkpt lat="43.040601" lon="-75.968735">
        <ele>183.041002</ele>
        <time>2024-06-08T08:41:50.000Z</time>
      </trkpt>
      <trkpt lat="43.040539" lon="-75.968964">
        <ele>184.281422</ele>
        <time>2024-06-08T08:41:52.000Z</time>
      </trkpt>
      <trkpt lat="43.040454" lon="-75.96922">
        <ele>185.825476</ele>
        <time>2024-06-08T08:41:54.000Z</time>
      </trkpt>
      <trkpt lat="43.040349" lon="-75.969422">
        <ele>187.056289</ele>
        <time>2024-06-08T08:41:56.000Z</time>
      </trkpt>
      <trkpt lat="43.039918" lon="-75.970126">
        <ele>191.799618</ele>
        <time>2024-06-08T08:42:03.000Z</time>
      </trkpt>
      <trkpt lat="43.039865" lon="-75.970255">
        <ele>192.579275</ele>
        <time>2024-06-08T08:42:04.000Z</time>
      </trkpt>
      <trkpt lat="43.039784" lon="-75.970572">
        <ele>194.422962</ele>
        <time>2024-06-08T08:42:07.000Z</time>
      </trkpt>
      <trkpt lat="43.039748" lon="-75.97092">
        <ele>196.200746</ele>
        <time>2024-06-08T08:42:10.000Z</time>
      </trkpt>
      <trkpt lat="43.039767" lon="-75.971232">
        <ele>197.870619</ele>
        <time>2024-06-08T08:42:13.000Z</time>
      </trkpt>
      <trkpt lat="43.039905" lon="-75.971668">
        <ele>200.386653</ele>
        <time>2024-06-08T08:42:17.000Z</time>
      </trkpt>
      <trkpt lat="43.040028" lon="-75.971869">
        <ele>201.703707</ele>
        <time>2024-06-08T08:42:19.000Z</time>
      </trkpt>
      <trkpt lat="43.040164" lon="-75.972058">
        <ele>203.119767</ele>
        <time>2024-06-08T08:42:21.000Z</time>
      </trkpt>
      <trkpt lat="43.040357" lon="-75.972278">
        <ele>204.960019</ele>
        <time>2024-06-08T08:42:24.000Z</time>
      </trkpt>
      <trkpt lat="43.040653" lon="-75.972511">
        <ele>207.369001</ele>
        <time>2024-06-08T08:42:28.000Z</time>
      </trkpt>
      <trkpt lat="43.041207" lon="-75.972839">
        <ele>209.53627</ele>
        <time>2024-06-08T08:42:35.000Z</time>
      </trkpt>
      <trkpt lat="43.041717" lon="-75.972984">
        <ele>210.349162</ele>
        <time>2024-06-08T08:42:41.000Z</time>
      </trkpt>
      <trkpt lat="43.042068" lon="-75.972987">
        <ele>210.897601</ele>
        <time>2024-06-08T08:42:45.000Z</time>
      </trkpt>
      <trkpt lat="43.042482" lon="-75.97292">
        <ele>211.555077</ele>
        <time>2024-06-08T08:42:50.000Z</time>
      </trkpt>
      <trkpt lat="43.042708" lon="-75.972918">
        <ele>211.269707</ele>
        <time>2024-06-08T08:42:53.000Z</time>
      </trkpt>
      <trkpt lat="43.043048" lon="-75.97302">
        <ele>209.703134</ele>
        <time>2024-06-08T08:42:57.000Z</time>
      </trkpt>
      <trkpt lat="43.043319" lon="-75.97322">
        <ele>208.351601</ele>
        <time>2024-06-08T08:43:00.000Z</time>
      </trkpt>
      <trkpt lat="43.04383" lon="-75.973801">
        <ele>205.446497</ele>
        <time>2024-06-08T08:43:07.000Z</time>
      </trkpt>
      <trkpt lat="43.044005" lon="-75.973914">
        <ele>204.57966</ele>
        <time>2024-06-08T08:43:09.000Z</time>
      </trkpt>
      <trkpt lat="43.044281" lon="-75.973964">
        <ele>203.442424</ele>
        <time>2024-06-08T08:43:12.000Z</time>
      </trkpt>
      <trkpt lat="43.044493" lon="-75.973956">
        <ele>202.658552</ele>
        <time>2024-06-08T08:43:14.000Z</time>
      </trkpt>
      <trkpt lat="43.044658" lon="-75.973877">
        <ele>201.969774</ele>
        <time>2024-06-08T08:43:16.000Z</time>
      </trkpt>
      <trkpt lat="43.044947" lon="-75.973708">
        <ele>200.78028</ele>
        <time>2024-06-08T08:43:19.000Z</time>
      </trkpt>
      <trkpt lat="43.045094" lon="-75.97356">
        <ele>200.08317</ele>
        <time>2024-06-08T08:43:21.000Z</time>
      </trkpt>
      <trkpt lat="43.045398" lon="-75.973112">
        <ele>198.415528</ele>
        <time>2024-06-08T08:43:26.000Z</time>
      </trkpt>
      <trkpt lat="43.045418" lon="-75.97307">
        <ele>198.292202</ele>
        <time>2024-06-08T08:43:26.000Z</time>
      </trkpt>
      <trkpt lat="43.045731" lon="-75.972482">
        <ele>196.668947</ele>
        <time>2024-06-08T08:43:32.000Z</time>
      </trkpt>
      <trkpt lat="43.045814" lon="-75.972275">
        <ele>196.325825</ele>
        <time>2024-06-08T08:43:34.000Z</time>
      </trkpt>
      <trkpt lat="43.045913" lon="-75.971838">
        <ele>195.696411</ele>
        <time>2024-06-08T08:43:38.000Z</time>
      </trkpt>
      <trkpt lat="43.045997" lon="-75.971147">
        <ele>194.755149</ele>
        <time>2024-06-08T08:43:44.000Z</time>
      </trkpt>
      <trkpt lat="43.04601" lon="-75.970666">
        <ele>194.101096</ele>
        <time>2024-06-08T08:43:48.000Z</time>
      </trkpt>
      <trkpt lat="43.045991" lon="-75.970462">
        <ele>193.810945</ele>
        <time>2024-06-08T08:43:50.000Z</time>
      </trkpt>
      <trkpt lat="43.045824" lon="-75.96963">
        <ele>192.913739</ele>
        <time>2024-06-08T08:43:57.000Z</time>
      </trkpt>
      <trkpt lat="43.045742" lon="-75.969057">
        <ele>192.334479</ele>
        <time>2024-06-08T08:44:02.000Z</time>
      </trkpt>
      <trkpt lat="43.045729" lon="-75.968699">
        <ele>191.980789</ele>
        <time>2024-06-08T08:44:05.000Z</time>
      </trkpt>
      <trkpt lat="43.045735" lon="-75.968544">
        <ele>191.822818</ele>
        <time>2024-06-08T08:44:06.000Z</time>
      </trkpt>
      <trkpt lat="43.045819" lon="-75.968291">
        <ele>191.55168</ele>
        <time>2024-06-08T08:44:08.000Z</time>
      </trkpt>
      <trkpt lat="43.045918" lon="-75.968148">
        <ele>191.343514</ele>
        <time>2024-06-08T08:44:10.000Z</time>
      </trkpt>
      <trkpt lat="43.046013" lon="-75.968051">
        <ele>191.142669</ele>
        <time>2024-06-08T08:44:11.000Z</time>
      </trkpt>
      <trkpt lat="43.046095" lon="-75.96818">
        <ele>190.604044</ele>
        <time>2024-06-08T08:44:12.000Z</time>
      </trkpt>
      <trkpt lat="43.046267" lon="-75.968288">
        <ele>189.822328</ele>
        <time>2024-06-08T08:44:14.000Z</time>
      </trkpt>
      <trkpt lat="43.046453" lon="-75.968389">
        <ele>189.017443</ele>
        <time>2024-06-08T08:44:16.000Z</time>
      </trkpt>
      <trkpt lat="43.046585" lon="-75.968426">
        <ele>188.463823</ele>
        <time>2024-06-08T08:44:17.000Z</time>
      </trkpt>
      <trkpt lat="43.046742" lon="-75.968393">
        <ele>187.863626</ele>
        <time>2024-06-08T08:44:19.000Z</time>
      </trkpt>
      <trkpt lat="43.046997" lon="-75.96819">
        <ele>186.679375</ele>
        <time>2024-06-08T08:44:22.000Z</time>
      </trkpt>
      <trkpt lat="43.047162" lon="-75.967834">
        <ele>185.399715</ele>
        <time>2024-06-08T08:44:25.000Z</time>
      </trkpt>
      <trkpt lat="43.047205" lon="-75.967677">
        <ele>184.852509</ele>
        <time>2024-06-08T08:44:26.000Z</time>
      </trkpt>
      <trkpt lat="43.047256" lon="-75.967255">
        <ele>183.442697</ele>
        <time>2024-06-08T08:44:29.000Z</time>
      </trkpt>
      <trkpt lat="43.047399" lon="-75.966492">
        <ele>179.686398</ele>
        <time>2024-06-08T08:44:35.000Z</time>
      </trkpt>
      <trkpt lat="43.04767" lon="-75.965364">
        <ele>174.056896</ele>
        <time>2024-06-08T08:44:45.000Z</time>
      </trkpt>
      <trkpt lat="43.047821" lon="-75.964864">
        <ele>171.769273</ele>
        <time>2024-06-08T08:44:49.000Z</time>
      </trkpt>
      <trkpt lat="43.048141" lon="-75.964104">
        <ele>169.559571</ele>
        <time>2024-06-08T08:44:56.000Z</time>
      </trkpt>
      <trkpt lat="43.048836" lon="-75.963048">
        <ele>165.88868</ele>
        <time>2024-06-08T08:45:08.000Z</time>
      </trkpt>
      <trkpt lat="43.049619" lon="-75.962062">
        <ele>164.539081</ele>
        <time>2024-06-08T08:45:20.000Z</time>
      </trkpt>
      <trkpt lat="43.049806" lon="-75.961924">
        <ele>164.281289</ele>
        <time>2024-06-08T08:45:22.000Z</time>
      </trkpt>
      <trkpt lat="43.050134" lon="-75.961793">
        <ele>163.85394</ele>
        <time>2024-06-08T08:45:26.000Z</time>
      </trkpt>
      <trkpt lat="43.050284" lon="-75.961793">
        <ele>163.657865</ele>
        <time>2024-06-08T08:45:28.000Z</time>
      </trkpt>
      <trkpt lat="43.050947" lon="-75.961935">
        <ele>162.699965</ele>
        <time>2024-06-08T08:45:35.000Z</time>
      </trkpt>
      <trkpt lat="43.051401" lon="-75.961904">
        <ele>162.026984</ele>
        <time>2024-06-08T08:45:40.000Z</time>
      </trkpt>
      <trkpt lat="43.052023" lon="-75.961966">
        <ele>161.116498</ele>
        <time>2024-06-08T08:45:47.000Z</time>
      </trkpt>
      <trkpt lat="43.052322" lon="-75.961905">
        <ele>160.457728</ele>
        <time>2024-06-08T08:45:50.000Z</time>
      </trkpt>
      <trkpt lat="43.052701" lon="-75.961661">
        <ele>159.439131</ele>
        <time>2024-06-08T08:45:55.000Z</time>
      </trkpt>
      <trkpt lat="43.052837" lon="-75.96153">
        <ele>159.026343</ele>
        <time>2024-06-08T08:45:57.000Z</time>
      </trkpt>
      <trkpt lat="43.052932" lon="-75.961407">
        <ele>158.696958</ele>
        <time>2024-06-08T08:45:58.000Z</time>
      </trkpt>
      <trkpt lat="43.053178" lon="-75.960908">
        <ele>157.598694</ele>
        <time>2024-06-08T08:46:03.000Z</time>
      </trkpt>
      <trkpt lat="43.053393" lon="-75.96061">
        <ele>156.83861</ele>
        <time>2024-06-08T08:46:06.000Z</time>
      </trkpt>
      <trkpt lat="43.053604" lon="-75.960395">
        <ele>155.895927</ele>
        <time>2024-06-08T08:46:09.000Z</time>
      </trkpt>
      <trkpt lat="43.053774" lon="-75.960268">
        <ele>155.009553</ele>
        <time>2024-06-08T08:46:11.000Z</time>
      </trkpt>
      <trkpt lat="43.05406" lon="-75.960129">
        <ele>153.535564</ele>
        <time>2024-06-08T08:46:14.000Z</time>
      </trkpt>
      <trkpt lat="43.055224" lon="-75.959804">
        <ele>148.047114</ele>
        <time>2024-06-08T08:46:27.000Z</time>
      </trkpt>
      <trkpt lat="43.055737" lon="-75.959721">
        <ele>145.449483</ele>
        <time>2024-06-08T08:46:33.000Z</time>
      </trkpt>
      <trkpt lat="43.056535" lon="-75.959615">
        <ele>141.481361</ele>
        <time>2024-06-08T08:46:42.000Z</time>
      </trkpt>
      <trkpt lat="43.057128" lon="-75.959572">
        <ele>138.812925769</ele>
        <time>2024-06-08T08:46:49.000Z</time>
      </trkpt>
      <trkpt lat="43.057495" lon="-75.959602">
        <ele>137.160840019</ele>
        <time>2024-06-08T08:46:53.000Z</time>
      </trkpt>
      <trkpt lat="43.058053" lon="-75.959741">
        <ele>134.612223095</ele>
        <time>2024-06-08T08:46:59.000Z</time>
      </trkpt>
      <trkpt lat="43.05828" lon="-75.959856">
        <ele>133.524539295</ele>
        <time>2024-06-08T08:47:02.000Z</time>
      </trkpt>
      <trkpt lat="43.05857" lon="-75.960037">
        <ele>132.092290929</ele>
        <time>2024-06-08T08:47:06.000Z</time>
      </trkpt>
      <trkpt lat="43.058678" lon="-75.960149">
        <ele>131.483402167</ele>
        <time>2024-06-08T08:47:08.000Z</time>
      </trkpt>
    </trkseg>
  </trk>
</gpx>

<!--
Performance optimized by W3 Total Cache. Learn more: https://www.boldgrid.com/w3-total-cache/?utm_source=w3tc&utm_medium=footer_comment&utm_campaign=free_plugin

Page Caching using Disk: Enhanced{w3tc_pagecache_reject_reason} 

Served from: www.aquabike.world @ 2026-05-10 18:49:33 by W3 Total Cache
-->